createdAt,value
2023-02-09T00:00:02.888Z,54.10
2023-02-09T00:02:29.812Z,52.93
2023-02-09T00:04:56.642Z,55.37
2023-02-09T00:07:23.623Z,58.77
2023-02-09T00:09:54.827Z,60.57
2023-02-09T00:12:40.362Z,58.27
2023-02-09T00:15:08.223Z,61.00
2023-02-09T00:17:36.235Z,57.40
2023-02-09T00:20:05.480Z,53.13
2023-02-09T00:22:32.624Z,57.90
2023-02-09T00:24:59.958Z,57.17
2023-02-09T00:27:26.925Z,57.23
2023-02-09T00:29:53.716Z,52.97
2023-02-09T00:32:20.665Z,52.30
2023-02-09T00:34:47.713Z,50.97
2023-02-09T00:37:14.573Z,59.90
2023-02-09T00:39:41.446Z,52.07
2023-02-09T00:42:10.950Z,57.23
2023-02-09T00:44:40.408Z,57.23
2023-02-09T00:47:09.058Z,56.80
2023-02-09T00:49:36.613Z,47.30
2023-02-09T00:52:04.627Z,58.17
2023-02-09T00:54:31.448Z,60.33
2023-02-09T00:57:05.128Z,51.20
2023-02-09T00:59:34.345Z,52.63
2023-02-09T01:02:01.797Z,52.40
2023-02-09T01:04:29.046Z,47.77
2023-02-09T01:06:57.066Z,61.13
2023-02-09T01:09:25.665Z,57.83
2023-02-09T01:11:52.598Z,61.83
2023-02-09T01:14:21.797Z,57.10
2023-02-09T01:16:48.727Z,52.17
2023-02-09T01:19:16.144Z,57.40
2023-02-09T01:21:43.199Z,53.93
2023-02-09T01:24:14.584Z,52.43
2023-02-09T01:26:41.794Z,54.50
2023-02-09T01:29:15.057Z,61.00
2023-02-09T01:31:42.504Z,112.10
2023-02-09T01:34:13.080Z,61.07
2023-02-09T01:36:40.149Z,52.03
2023-02-09T01:39:07.310Z,56.07
2023-02-09T01:41:34.590Z,47.20
2023-02-09T01:44:26.002Z,52.40
2023-02-09T01:46:54.108Z,49.33
2023-02-09T01:49:26.460Z,52.13
2023-02-09T01:52:03.124Z,51.10
2023-02-09T01:54:36.532Z,50.33
2023-02-09T01:57:26.626Z,55.37
2023-02-09T02:00:08.361Z,49.30
2023-02-09T02:02:35.944Z,53.90
2023-02-09T02:05:04.534Z,60.83
2023-02-09T02:07:37.337Z,48.77
2023-02-09T02:14:02.426Z,49.90
2023-02-09T02:16:45.729Z,47.53
2023-02-09T02:19:47.416Z,51.07
2023-02-09T02:22:36.946Z,48.30
2023-02-09T02:25:16.049Z,43.47
2023-02-09T02:28:07.953Z,50.23
2023-02-09T02:31:03.063Z,44.13
2023-02-09T02:33:44.651Z,48.17
2023-02-09T02:36:40.844Z,48.53
2023-02-09T02:39:18.006Z,40.77
2023-02-09T02:42:32.812Z,43.13
2023-02-09T02:45:08.495Z,36.87
2023-02-09T02:47:40.533Z,45.47
2023-02-09T02:50:14.779Z,37.17
2023-02-09T02:52:46.414Z,42.97
2023-02-09T02:55:16.784Z,46.10
2023-02-09T02:57:47.467Z,33.47
2023-02-09T03:00:39.362Z,40.77
2023-02-09T03:03:13.529Z,39.27
2023-02-09T03:05:42.580Z,41.07
2023-02-09T03:08:09.591Z,44.80
2023-02-09T03:10:39.704Z,45.63
2023-02-09T03:13:09.428Z,37.77
2023-02-09T03:15:58.190Z,38.33
2023-02-09T03:18:46.615Z,36.33
2023-02-09T03:21:40.866Z,41.53
2023-02-09T03:24:15.435Z,39.50
2023-02-09T03:27:09.995Z,39.67
2023-02-09T03:29:38.648Z,46.00
2023-02-09T03:32:07.106Z,44.63
2023-02-09T03:34:34.332Z,46.80
2023-02-09T03:37:01.334Z,45.30
2023-02-09T03:39:28.468Z,43.43
2023-02-09T03:41:55.518Z,46.17
2023-02-09T03:44:28.063Z,50.73
2023-02-09T03:46:58.113Z,54.80
2023-02-09T03:49:28.324Z,55.33
2023-02-09T03:51:55.362Z,45.00
2023-02-09T03:54:22.378Z,48.60
2023-02-09T03:56:49.299Z,47.50
2023-02-09T03:59:16.308Z,46.27
2023-02-09T04:01:43.181Z,49.17
2023-02-09T04:04:10.017Z,42.97
2023-02-09T04:06:37.277Z,48.07
2023-02-09T04:09:05.541Z,50.13
2023-02-09T04:11:32.465Z,47.73
2023-02-09T04:13:59.420Z,50.90
2023-02-09T04:16:26.800Z,49.33
2023-02-09T04:18:53.878Z,49.17
2023-02-09T04:21:20.845Z,51.10
2023-02-09T04:23:48.544Z,50.87
2023-02-09T04:26:16.017Z,46.27
2023-02-09T04:28:43.053Z,44.90
2023-02-09T04:31:10.855Z,47.53
2023-02-09T04:33:38.290Z,46.90
2023-02-09T04:36:05.969Z,50.90
2023-02-09T04:38:32.940Z,54.87
2023-02-09T04:41:01.764Z,72.63
2023-02-09T04:43:29.707Z,71.93
2023-02-09T04:45:56.970Z,65.20
2023-02-09T04:48:25.726Z,75.93
2023-02-09T04:50:53.335Z,66.63
2023-02-09T04:53:21.731Z,75.93
2023-02-09T04:55:50.522Z,85.93
2023-02-09T04:58:38.449Z,87.97
2023-02-09T05:01:06.763Z,66.60
2023-02-09T05:03:34.354Z,56.67
2023-02-09T05:06:04.326Z,57.90
2023-02-09T05:08:31.599Z,66.27
2023-02-09T05:10:59.216Z,69.70
2023-02-09T05:13:27.134Z,57.13
2023-02-09T05:15:54.382Z,55.03
2023-02-09T05:18:22.045Z,62.20
2023-02-09T05:20:49.351Z,55.37
2023-02-09T05:23:16.734Z,55.93
2023-02-09T05:25:45.741Z,58.30
2023-02-09T05:28:12.935Z,58.83
2023-02-09T05:30:40.036Z,55.80
2023-02-09T05:33:07.106Z,67.30
2023-02-09T05:35:33.993Z,59.07
2023-02-09T05:38:01.977Z,57.87
2023-02-09T05:40:28.869Z,54.40
2023-02-09T05:42:55.709Z,54.30
2023-02-09T05:45:23.449Z,59.73
2023-02-09T05:47:50.310Z,53.73
2023-02-09T05:50:17.223Z,61.70
2023-02-09T05:52:45.134Z,59.07
2023-02-09T05:55:12.246Z,55.43
2023-02-09T05:57:39.340Z,55.00
2023-02-09T06:00:06.924Z,54.63
2023-02-09T06:02:33.897Z,51.03
2023-02-09T06:05:00.924Z,59.70
2023-02-09T06:07:27.816Z,50.47
2023-02-09T06:09:54.707Z,49.40
2023-02-09T06:12:21.450Z,43.03
2023-02-09T06:14:48.376Z,47.83
2023-02-09T06:17:15.382Z,45.07
2023-02-09T06:19:42.419Z,47.00
2023-02-09T06:22:09.254Z,49.40
2023-02-09T06:24:36.056Z,47.13
2023-02-09T06:27:02.783Z,59.30
2023-02-09T06:29:29.568Z,47.37
2023-02-09T06:31:56.373Z,54.43
2023-02-09T06:34:23.510Z,46.93
2023-02-09T06:36:50.367Z,52.30
2023-02-09T06:39:17.208Z,47.43
2023-02-09T06:41:43.964Z,44.80
2023-02-09T06:44:12.079Z,44.67
2023-02-09T06:46:39.527Z,41.07
2023-02-09T06:49:06.504Z,48.37
2023-02-09T06:51:33.570Z,45.13
2023-02-09T06:54:00.414Z,49.57
2023-02-09T06:56:27.327Z,46.63
2023-02-09T06:58:54.353Z,48.17
2023-02-09T07:01:21.286Z,48.83
2023-02-09T07:03:48.047Z,47.67
2023-02-09T07:06:17.723Z,51.23
2023-02-09T07:08:45.589Z,48.83
2023-02-09T07:11:15.442Z,41.20
2023-02-09T07:13:43.364Z,44.87
2023-02-09T07:16:11.534Z,44.93
2023-02-09T07:18:39.329Z,48.80
2023-02-09T07:21:09.399Z,51.87
2023-02-09T07:23:36.472Z,53.93
2023-02-09T07:26:06.231Z,49.40
2023-02-09T07:28:35.209Z,44.83
2023-02-09T07:31:05.553Z,46.00
2023-02-09T07:33:33.119Z,52.70
2023-02-09T07:36:00.169Z,52.80
2023-02-09T07:38:27.182Z,49.33
2023-02-09T07:40:55.190Z,52.13
2023-02-09T07:43:22.022Z,49.07
2023-02-09T07:45:48.882Z,43.83
2023-02-09T07:48:15.802Z,42.73
2023-02-09T07:50:49.468Z,49.00
2023-02-09T07:53:16.523Z,42.97
2023-02-09T07:55:43.599Z,41.37
2023-02-09T07:58:10.982Z,43.63
2023-02-09T08:00:38.149Z,43.80
2023-02-09T08:03:05.967Z,41.37
2023-02-09T08:05:49.750Z,41.67
2023-02-09T08:08:16.613Z,46.43
2023-02-09T08:10:43.718Z,44.87
2023-02-09T08:13:11.712Z,34.80
2023-02-09T08:15:50.193Z,43.03
2023-02-09T08:18:28.507Z,50.73
2023-02-09T08:20:55.626Z,44.13
2023-02-09T08:23:29.969Z,46.43
2023-02-09T08:25:58.196Z,47.20
2023-02-09T08:28:35.023Z,47.33
2023-02-09T08:31:08.837Z,46.03
2023-02-09T08:33:35.940Z,41.60
2023-02-09T08:36:02.825Z,43.57
2023-02-09T08:38:29.596Z,39.47
2023-02-09T08:40:56.434Z,37.80
2023-02-09T08:43:23.325Z,44.03
2023-02-09T08:45:51.665Z,40.70
2023-02-09T08:48:19.677Z,41.97
2023-02-09T08:50:46.566Z,43.93
2023-02-09T08:53:13.416Z,41.47
2023-02-09T08:55:40.246Z,54.13
2023-02-09T08:58:07.747Z,34.97
2023-02-09T09:00:34.566Z,36.93
2023-02-09T09:03:05.760Z,37.70
2023-02-09T09:05:34.983Z,44.90
2023-02-09T09:08:02.438Z,37.37
2023-02-09T09:10:29.737Z,44.70
2023-02-09T09:12:57.214Z,39.67
2023-02-09T09:15:24.310Z,41.87
2023-02-09T09:17:51.191Z,41.03
2023-02-09T09:20:18.412Z,49.47
2023-02-09T09:22:45.155Z,38.93
2023-02-09T09:25:11.882Z,41.00
2023-02-09T09:27:38.817Z,43.10
2023-02-09T09:30:07.234Z,41.10
2023-02-09T09:32:34.118Z,33.20
2023-02-09T09:35:03.526Z,38.40
2023-02-09T09:37:30.500Z,41.03
2023-02-09T09:39:57.304Z,37.57
2023-02-09T09:42:37.402Z,36.20
2023-02-09T09:45:07.469Z,41.20
2023-02-09T09:47:40.795Z,33.60
2023-02-09T09:50:27.340Z,35.20
2023-02-09T09:53:05.136Z,30.27
2023-02-09T09:55:33.557Z,31.93
2023-02-09T09:58:04.045Z,28.07
2023-02-09T10:00:40.511Z,28.33
2023-02-09T10:03:19.798Z,22.87
2023-02-09T10:06:01.994Z,23.00
2023-02-09T10:08:32.667Z,25.90
2023-02-09T10:11:14.807Z,28.70
2023-02-09T10:13:47.708Z,16.13
2023-02-09T10:16:30.511Z,19.20
2023-02-09T10:19:01.595Z,22.00
2023-02-09T10:21:31.481Z,23.20
2023-02-09T10:24:01.217Z,23.17
2023-02-09T10:26:28.202Z,21.43
2023-02-09T10:29:00.966Z,18.87
2023-02-09T10:31:27.837Z,19.77
2023-02-09T10:34:00.529Z,25.03
2023-02-09T10:36:32.885Z,26.37
2023-02-09T10:39:16.367Z,29.07
2023-02-09T10:41:47.096Z,25.47
2023-02-09T10:44:40.493Z,26.90
2023-02-09T10:47:10.303Z,30.47
2023-02-09T10:49:40.014Z,29.23
2023-02-09T10:52:15.810Z,30.80
2023-02-09T10:54:53.281Z,29.67
2023-02-09T10:57:33.797Z,29.53
2023-02-09T11:00:06.174Z,31.53
2023-02-09T11:02:36.380Z,24.40
2023-02-09T11:05:24.713Z,28.40
2023-02-09T11:07:58.501Z,27.07
2023-02-09T11:10:29.015Z,24.03
2023-02-09T11:12:56.145Z,36.87
2023-02-09T11:15:35.835Z,29.73
2023-02-09T11:18:10.817Z,33.47
2023-02-09T11:20:49.524Z,23.00
2023-02-09T11:23:31.321Z,30.23
2023-02-09T11:26:26.607Z,32.97
2023-02-09T11:29:21.187Z,36.57
2023-02-09T11:32:22.316Z,36.90
2023-02-09T11:34:58.292Z,34.77
2023-02-09T11:37:30.605Z,32.83
2023-02-09T11:40:23.514Z,33.77
2023-02-09T11:43:19.169Z,28.27
2023-02-09T11:45:50.141Z,34.57
2023-02-09T11:48:38.833Z,29.23
2023-02-09T11:51:20.913Z,30.27
2023-02-09T11:53:57.238Z,30.63
2023-02-09T11:56:26.432Z,24.97
2023-02-09T11:58:56.022Z,32.10
2023-02-09T12:01:40.049Z,36.60
2023-02-09T12:04:17.918Z,31.37
2023-02-09T12:07:05.294Z,30.50
2023-02-09T12:09:48.846Z,34.20
2023-02-09T12:12:25.216Z,28.57
2023-02-09T12:15:12.131Z,30.13
2023-02-09T12:18:04.151Z,28.77
2023-02-09T12:20:37.167Z,31.20
2023-02-09T12:23:31.307Z,29.50
2023-02-09T12:26:11.394Z,27.73
2023-02-09T12:28:45.489Z,30.40
2023-02-09T12:31:22.107Z,31.67
2023-02-09T12:33:49.004Z,30.77
2023-02-09T12:36:16.147Z,29.73
2023-02-09T12:38:56.486Z,29.03
2023-02-09T12:41:25.657Z,26.47
2023-02-09T12:44:10.796Z,29.23
2023-02-09T12:46:53.122Z,26.33
2023-02-09T12:49:31.895Z,32.50
2023-02-09T12:52:01.598Z,32.87
2023-02-09T12:54:52.503Z,32.27
2023-02-09T12:57:23.910Z,31.40
2023-02-09T12:59:53.378Z,27.93
2023-02-09T13:02:55.123Z,23.57
2023-02-09T13:05:33.914Z,28.93
2023-02-09T13:08:18.826Z,28.90
2023-02-09T13:11:03.881Z,25.30
2023-02-09T13:13:52.936Z,28.37
2023-02-09T13:16:22.793Z,28.43
2023-02-09T13:18:55.450Z,28.40
2023-02-09T13:21:53.310Z,24.97
2023-02-09T13:24:31.333Z,24.07
2023-02-09T13:26:59.784Z,28.57
2023-02-09T13:29:29.670Z,21.83
2023-02-09T13:32:17.584Z,26.93
2023-02-09T13:35:08.923Z,26.27
2023-02-09T13:37:44.903Z,27.10
2023-02-09T13:40:28.510Z,24.33
2023-02-09T13:43:19.017Z,29.03
2023-02-09T13:45:55.089Z,25.77
2023-02-09T13:48:39.369Z,24.13
2023-02-09T13:51:18.684Z,30.20
2023-02-09T13:54:00.547Z,26.37
2023-02-09T13:56:28.451Z,28.30
2023-02-09T13:58:55.809Z,28.53
2023-02-09T14:01:32.816Z,26.60
2023-02-09T14:04:04.603Z,25.93
2023-02-09T14:06:44.360Z,24.10
2023-02-09T14:09:29.255Z,24.67
2023-02-09T14:12:01.932Z,25.73
2023-02-09T14:14:54.718Z,28.73
2023-02-09T14:17:32.302Z,28.47
2023-02-09T14:20:00.402Z,25.93
2023-02-09T14:22:33.492Z,25.60
2023-02-09T14:25:05.447Z,32.47
2023-02-09T14:27:33.287Z,25.77
2023-02-09T14:30:01.339Z,28.07
2023-02-09T14:32:40.539Z,28.30
2023-02-09T14:35:19.613Z,30.10
2023-02-09T14:37:47.994Z,28.37
2023-02-09T14:40:27.756Z,29.03
2023-02-09T14:43:07.009Z,26.30
2023-02-09T14:45:37.380Z,28.57
2023-02-09T14:48:28.052Z,27.00
2023-02-09T14:51:01.491Z,26.40
2023-02-09T14:53:33.052Z,27.63
2023-02-09T14:56:00.968Z,31.07
2023-02-09T14:58:30.815Z,27.90
2023-02-09T15:01:00.762Z,28.87
2023-02-09T15:03:28.102Z,30.97
2023-02-09T15:06:00.619Z,31.93
2023-02-09T15:08:30.142Z,35.83
2023-02-09T15:11:02.784Z,35.03
2023-02-09T15:13:31.260Z,29.00
2023-02-09T15:15:58.109Z,32.83
2023-02-09T15:18:26.855Z,35.97
2023-02-09T15:20:53.645Z,36.10
2023-02-09T15:23:20.918Z,35.37
2023-02-09T15:25:48.308Z,40.03
2023-02-09T15:28:28.835Z,42.23
2023-02-09T15:30:57.361Z,43.63
2023-02-09T15:33:28.382Z,36.63
2023-02-09T15:35:59.220Z,38.57
2023-02-09T15:38:28.033Z,44.53
2023-02-09T15:41:13.451Z,43.30
2023-02-09T15:43:58.706Z,40.33
2023-02-09T15:46:44.088Z,49.20
2023-02-09T15:49:10.895Z,48.97
2023-02-09T15:51:39.625Z,46.33
2023-02-09T15:54:14.112Z,49.57
2023-02-09T15:56:41.462Z,53.20
2023-02-09T15:59:16.771Z,55.13
2023-02-09T16:01:43.832Z,64.57
2023-02-09T16:04:14.803Z,71.27
2023-02-09T16:06:53.213Z,60.27
2023-02-09T16:09:24.270Z,56.47
2023-02-09T16:11:51.551Z,37.83
2023-02-09T16:14:23.480Z,48.43
2023-02-09T16:16:50.706Z,43.80
2023-02-09T16:19:19.756Z,42.93
2023-02-09T16:21:54.193Z,49.83
2023-02-09T16:24:32.232Z,47.07
2023-02-09T16:27:02.244Z,41.70
2023-02-09T16:29:29.197Z,44.60
2023-02-09T16:31:56.012Z,56.73
2023-02-09T16:34:22.776Z,53.43
2023-02-09T16:36:50.169Z,53.27
2023-02-09T16:39:19.685Z,55.30
2023-02-09T16:41:47.526Z,42.17
2023-02-09T16:44:26.282Z,48.07
2023-02-09T16:46:55.753Z,44.97
2023-02-09T16:49:39.409Z,42.23
2023-02-09T16:52:17.030Z,42.97
2023-02-09T16:54:48.157Z,41.30
2023-02-09T16:57:17.876Z,43.20
2023-02-09T16:59:45.523Z,38.67
2023-02-09T17:02:35.635Z,46.17
2023-02-09T17:05:21.208Z,42.00
2023-02-09T17:07:54.923Z,43.83
2023-02-09T17:10:25.354Z,41.73
2023-02-09T17:12:53.727Z,41.40
2023-02-09T17:15:30.146Z,39.57
2023-02-09T17:18:03.801Z,42.10
2023-02-09T17:20:41.911Z,42.87
2023-02-09T17:23:18.438Z,38.67
2023-02-09T17:25:45.615Z,39.07
2023-02-09T17:28:12.942Z,49.23
2023-02-09T17:30:40.352Z,55.73
2023-02-09T17:33:24.448Z,46.10
2023-02-09T17:36:22.812Z,49.10
2023-02-09T17:38:41.095Z,44.00
2023-02-09T17:41:33.423Z,47.77
2023-02-09T17:44:39.188Z,41.07
2023-02-09T17:47:17.180Z,37.40
2023-02-09T17:49:44.199Z,33.63
2023-02-09T17:52:19.068Z,35.13
2023-02-09T17:54:46.364Z,31.33
2023-02-09T17:57:15.119Z,26.33
2023-02-09T17:59:42.263Z,30.70
2023-02-09T18:02:15.883Z,27.57
2023-02-09T18:04:43.112Z,29.83
2023-02-09T18:07:10.587Z,25.67
2023-02-09T18:09:37.465Z,31.13
2023-02-09T18:12:11.127Z,26.23
2023-02-09T18:14:37.872Z,27.63
2023-02-09T18:17:04.788Z,34.33
2023-02-09T18:19:33.068Z,32.93
2023-02-09T18:22:01.609Z,26.80
2023-02-09T18:24:32.310Z,26.80
2023-02-09T18:26:59.461Z,28.87
2023-02-09T18:29:29.366Z,28.97
2023-02-09T18:32:00.777Z,29.00
2023-02-09T18:34:28.130Z,26.53
2023-02-09T18:36:55.409Z,31.37
2023-02-09T18:39:22.194Z,17.20
2023-02-09T18:41:54.444Z,32.20
2023-02-09T18:44:24.601Z,30.27
2023-02-09T18:46:51.478Z,28.70
2023-02-09T18:49:18.332Z,24.17
2023-02-09T18:51:45.089Z,29.07
2023-02-09T18:54:13.177Z,25.93
2023-02-09T18:56:40.016Z,36.40
2023-02-09T18:59:08.024Z,29.77
2023-02-09T19:01:36.677Z,26.13
2023-02-09T19:04:03.558Z,27.57
2023-02-09T19:06:32.639Z,21.20
2023-02-09T19:08:59.425Z,28.23
2023-02-09T19:11:27.291Z,26.13
2023-02-09T19:14:12.821Z,27.00
2023-02-09T19:16:41.129Z,27.87
2023-02-09T19:19:09.413Z,32.57
2023-02-09T19:21:36.328Z,23.03
2023-02-09T19:24:03.749Z,28.80
2023-02-09T19:26:30.497Z,28.43
2023-02-09T19:28:57.701Z,32.40
2023-02-09T19:31:25.081Z,32.10
2023-02-09T19:33:57.819Z,29.20
2023-02-09T19:36:25.189Z,28.23
2023-02-09T19:38:52.466Z,25.90
2023-02-09T19:41:20.562Z,23.83
2023-02-09T19:43:48.586Z,26.70
2023-02-09T19:46:15.405Z,35.23
2023-02-09T19:48:42.406Z,26.70
2023-02-09T19:51:09.188Z,35.10
2023-02-09T19:53:36.316Z,30.53
2023-02-09T19:56:03.397Z,32.37
2023-02-09T19:58:30.183Z,34.10
2023-02-09T20:00:57.274Z,25.00
2023-02-09T20:03:24.827Z,33.20
2023-02-09T20:05:51.995Z,38.63
2023-02-09T20:08:20.254Z,31.97
2023-02-09T20:10:47.908Z,34.93
2023-02-09T20:13:15.788Z,32.97
2023-02-09T20:15:43.983Z,30.10
2023-02-09T20:18:13.663Z,35.37
2023-02-09T20:20:43.272Z,28.23
2023-02-09T20:23:10.392Z,27.50
2023-02-09T20:25:41.018Z,29.17
2023-02-09T20:28:08.774Z,29.17
2023-02-09T20:30:35.823Z,27.50
2023-02-09T20:33:02.775Z,30.07
2023-02-09T20:35:29.826Z,27.30
2023-02-09T20:37:56.656Z,33.40
2023-02-09T20:40:23.924Z,30.70
2023-02-09T20:43:09.754Z,31.77
2023-02-09T20:45:55.432Z,30.60
2023-02-09T20:48:23.309Z,31.97
2023-02-09T20:50:50.188Z,27.27
2023-02-09T20:53:17.190Z,29.70
2023-02-09T20:55:45.247Z,33.43
2023-02-09T20:58:13.785Z,32.60
2023-02-09T21:00:42.822Z,32.93
2023-02-09T21:03:09.658Z,36.90
2023-02-09T21:05:36.488Z,34.40
2023-02-09T21:08:04.564Z,33.27
2023-02-09T21:10:35.884Z,35.20
2023-02-09T21:13:06.004Z,35.90
2023-02-09T21:15:39.357Z,37.83
2023-02-09T21:18:06.820Z,37.03
2023-02-09T21:20:37.116Z,33.37
2023-02-09T21:23:04.198Z,39.10
2023-02-09T21:25:31.377Z,38.30
2023-02-09T21:28:01.056Z,37.87
2023-02-09T21:30:29.277Z,33.77
2023-02-09T21:32:57.303Z,34.17
2023-02-09T21:35:24.399Z,34.43
2023-02-09T21:37:51.412Z,34.43
2023-02-09T21:40:20.397Z,31.77
2023-02-09T21:42:48.866Z,38.87
2023-02-09T21:45:15.940Z,35.73
2023-02-09T21:47:44.015Z,30.87
2023-02-09T21:50:13.094Z,41.07
2023-02-09T21:52:40.167Z,33.00
2023-02-09T21:55:08.466Z,36.37
2023-02-09T21:57:38.390Z,35.70
2023-02-09T22:00:07.854Z,31.77
2023-02-09T22:02:35.472Z,29.20
2023-02-09T22:05:02.758Z,33.13
2023-02-09T22:07:30.111Z,28.60
2023-02-09T22:09:56.977Z,32.47
2023-02-09T22:12:23.803Z,27.83
2023-02-09T22:14:50.687Z,29.53
2023-02-09T22:17:17.688Z,33.13
2023-02-09T22:19:44.775Z,34.43
2023-02-09T22:22:11.657Z,31.80
2023-02-09T22:24:38.768Z,30.17
2023-02-09T22:27:06.905Z,31.37
2023-02-09T22:29:34.526Z,27.20
2023-02-09T22:32:01.808Z,28.80
2023-02-09T22:34:29.021Z,30.47
2023-02-09T22:36:55.973Z,23.57
2023-02-09T22:39:22.923Z,26.00
2023-02-09T22:41:49.770Z,23.90
2023-02-09T22:44:17.536Z,26.07
2023-02-09T22:46:45.563Z,34.77
2023-02-09T22:49:19.378Z,24.87
2023-02-09T22:51:48.050Z,24.23
2023-02-09T22:54:18.143Z,24.63
2023-02-09T22:56:45.670Z,28.10
2023-02-09T22:59:14.617Z,26.00
2023-02-09T23:01:42.488Z,30.00
2023-02-09T23:04:11.955Z,25.53
2023-02-09T23:06:39.146Z,28.53
2023-02-09T23:09:07.683Z,24.10
2023-02-09T23:11:35.378Z,27.77
2023-02-09T23:14:10.705Z,30.50
2023-02-09T23:16:40.189Z,30.27
2023-02-09T23:19:08.587Z,29.47
2023-02-09T23:21:38.069Z,29.50
2023-02-09T23:24:05.676Z,34.23
2023-02-09T23:26:33.126Z,23.67
2023-02-09T23:29:03.155Z,27.67
2023-02-09T23:31:30.721Z,28.50
2023-02-09T23:33:59.141Z,28.03
2023-02-09T23:36:29.564Z,31.90
2023-02-09T23:38:59.491Z,24.50
2023-02-09T23:41:27.814Z,29.80
2023-02-09T23:43:56.399Z,27.43
2023-02-09T23:46:28.613Z,22.23
2023-02-09T23:48:56.645Z,26.87
2023-02-09T23:51:29.731Z,26.87
2023-02-09T23:53:59.136Z,30.33
2023-02-09T23:56:27.732Z,30.37
2023-02-09T23:58:54.851Z,33.40
